OERK/RUH METAR and TAF weather

Enter ICAO airport designator
Station Type Date Time Source
OERK METAR 2020/02/24 07:00 UTC NOAA

OERK 240700Z 16012KT CAVOK 24/13 Q1018 NOSIG


Station Type Date Time Source
OERK Decoded METAR 2020/02/24 07:00 UTC NOAA

King Khaled International Airport, Saudi Arabia (OERK) 24-56N 046-43E 612M
Feb 24, 2020 - 02:00 AM EST / 2020.02.24 0700 UTC
Wind: from the SSE (160 degrees) at 14 MPH (12 KT):0
Visibility: greater than 7 mile(s):0
Temperature: 75 F (24 C)
Dew Point: 55 F (13 C)
Relative Humidity: 50%
Pressure (altimeter): 30.06 in. Hg (1018 hPa)
ob: OERK 240700Z 16012KT CAVOK 24/13 Q1018 NOSIG
cycle: 7

Station Type Date Time Source
OERK TAF 2020/02/24 06:06 UTC NOAA

TAF OERK 240500Z 2406/2512 16010G20KT 7000 NSC
TEMPO 2406/2416 3500 DU BLDU PROB30
TEMPO 2410/2414 1500

Example: see airport list